Time;durP1;ratioP1;P1;durP2;ratioP2;P2;SDS_P1;SDS_P2;PMS_P1;PMS_P2;Temp;Humidity;BMP_temperature;BMP_pressure;BME280_temperature;BME280_humidity;BME280_pressure;Samples;Min_cycle;Max_cycle;Signal;HPM_P1;HPM_P2
2023/09/09 00:01:35;;;;;;;11.68;10.15;;;18.80;99.90;;;;;;5023427;28;20072;-48
2023/09/09 00:04:03;;;;;;;10.27;9.38;;;18.80;99.90;;;;;;5023184;28;20045;-51
2023/09/09 00:06:28;;;;;;;13.05;11.82;;;18.70;99.90;;;;;;5023366;28;20431;-47
2023/09/09 00:08:54;;;;;;;13.40;10.75;;;18.60;99.90;;;;;;5021975;28;20061;-51
2023/09/09 00:11:19;;;;;;;13.50;12.35;;;18.60;99.90;;;;;;5000822;28;20499;-50
2023/09/09 00:13:45;;;;;;;16.23;14.82;;;18.60;99.90;;;;;;5022837;28;20060;-46
2023/09/09 00:16:11;;;;;;;15.73;14.48;;;18.50;99.90;;;;;;5023376;28;20389;-47
2023/09/09 00:18:37;;;;;;;15.20;13.88;;;18.40;99.90;;;;;;5023787;28;20029;-47
2023/09/09 00:21:04;;;;;;;15.77;14.38;;;18.40;99.90;;;;;;5022857;28;20061;-48
2023/09/09 00:23:30;;;;;;;14.30;13.15;;;18.30;99.90;;;;;;5023196;28;20171;-48
2023/09/09 00:25:56;;;;;;;17.30;15.80;;;18.40;99.90;;;;;;5021750;28;20132;-51
2023/09/09 00:28:23;;;;;;;15.25;14.05;;;18.30;99.90;;;;;;5021961;28;20041;-48
2023/09/09 00:30:49;;;;;;;14.80;13.32;;;18.30;99.90;;;;;;5009456;28;20458;-49
2023/09/09 00:33:14;;;;;;;14.05;12.85;;;18.30;99.90;;;;;;5022610;28;20048;-48
2023/09/09 00:35:40;;;;;;;13.73;12.55;;;18.30;99.90;;;;;;5023235;28;20052;-47
2023/09/09 00:38:07;;;;;;;13.57;12.45;;;18.30;99.90;;;;;;5021866;28;20044;-47
2023/09/09 00:40:33;;;;;;;12.82;11.68;;;18.20;99.90;;;;;;5023132;28;20050;-48
2023/09/09 00:42:58;;;;;;;8.27;7.53;;;18.20;99.90;;;;;;5004214;28;20041;-48
2023/09/09 00:45:26;;;;;;;8.85;8.05;;;18.20;99.90;;;;;;5023374;28;20056;-48
2023/09/09 00:47:52;;;;;;;6.57;5.22;;;18.10;99.90;;;;;;5021633;28;20095;-47
2023/09/09 00:50:19;;;;;;;5.47;4.72;;;18.10;99.90;;;;;;5023217;28;20236;-46
2023/09/09 00:52:46;;;;;;;4.65;3.88;;;18.00;99.90;;;;;;5022198;28;20424;-48
2023/09/09 00:55:12;;;;;;;5.35;3.70;;;18.00;99.90;;;;;;5023036;28;20505;-50
2023/09/09 00:57:38;;;;;;;4.63;4.00;;;18.00;99.90;;;;;;5023926;28;20091;-47
2023/09/09 01:00:09;;;;;;;5.82;5.32;;;18.00;99.90;;;;;;5026202;28;20513;-48
2023/09/09 01:02:40;;;;;;;5.40;4.90;;;18.00;99.90;;;;;;5025118;28;20037;-51
2023/09/09 01:05:06;;;;;;;7.45;6.60;;;18.00;99.90;;;;;;5025227;28;20080;-50
2023/09/09 01:07:46;;;;;;;8.13;7.53;;;17.90;99.90;;;;;;5026997;28;20121;-48
2023/09/09 01:10:12;;;;;;;7.55;6.88;;;18.00;99.90;;;;;;5024563;28;20050;-47
2023/09/09 01:12:38;;;;;;;7.28;6.50;;;18.00;99.90;;;;;;5041270;28;20037;-48
2023/09/09 01:15:06;;;;;;;10.57;9.57;;;18.00;99.90;;;;;;5023504;28;20407;-48
2023/09/09 01:17:32;;;;;;;11.52;10.52;;;18.00;99.90;;;;;;5026427;28;20107;-47
2023/09/09 01:19:59;;;;;;;9.98;9.00;;;18.00;99.90;;;;;;5024468;28;20087;-47
2023/09/09 01:22:25;;;;;;;11.65;10.60;;;18.00;99.90;;;;;;5024591;28;20465;-48
2023/09/09 01:24:51;;;;;;;10.20;9.25;;;18.00;99.90;;;;;;4991738;28;20076;-49
2023/09/09 01:27:16;;;;;;;7.95;7.07;;;18.00;99.90;;;;;;5025017;28;20041;-47
2023/09/09 01:29:42;;;;;;;9.40;7.18;;;17.90;99.90;;;;;;5025650;28;20176;-46
2023/09/09 01:32:08;;;;;;;6.93;6.22;;;18.00;99.90;;;;;;5026179;28;20029;-47
2023/09/09 01:34:33;;;;;;;8.02;7.28;;;17.90;99.90;;;;;;5025697;28;20045;-48
2023/09/09 01:36:59;;;;;;;9.38;7.13;;;17.90;99.90;;;;;;5026284;28;20041;-47
2023/09/09 01:39:24;;;;;;;8.32;7.53;;;17.90;99.90;;;;;;5024978;28;20164;-48
2023/09/09 01:41:50;;;;;;;8.23;7.28;;;17.90;99.90;;;;;;5007849;28;20404;-47
2023/09/09 01:44:15;;;;;;;9.07;8.32;;;17.80;99.90;;;;;;5025473;28;20165;-47
2023/09/09 01:46:41;;;;;;;9.93;7.88;;;17.80;99.90;;;;;;5019204;28;20185;-47
2023/09/09 01:49:07;;;;;;;10.82;9.88;;;17.80;99.90;;;;;;5024506;28;20504;-48
2023/09/09 01:51:33;;;;;;;9.02;8.23;;;17.80;99.90;;;;;;5023936;28;20124;-46
2023/09/09 01:53:58;;;;;;;9.82;8.93;;;17.80;99.90;;;;;;5024126;28;20455;-47
2023/09/09 01:56:24;;;;;;;11.13;9.98;;;17.80;99.90;;;;;;5026573;28;20041;-49
2023/09/09 01:58:50;;;;;;;11.32;10.40;;;17.70;99.90;;;;;;5023963;28;20045;-47
2023/09/09 02:01:15;;;;;;;12.65;11.63;;;17.70;99.90;;;;;;5024373;28;20219;-47
2023/09/09 02:03:41;;;;;;;15.57;10.57;;;17.70;99.90;;;;;;5024819;28;20370;-46
2023/09/09 02:06:06;;;;;;;11.25;10.20;;;17.60;99.90;;;;;;5025909;28;20064;-47
2023/09/09 02:08:32;;;;;;;13.40;11.32;;;17.60;99.90;;;;;;5024905;28;20038;-46
2023/09/09 02:10:58;;;;;;;11.70;10.75;;;17.70;99.90;;;;;;5026127;28;20077;-47
2023/09/09 02:13:23;;;;;;;11.32;10.15;;;17.70;99.90;;;;;;5026934;28;20056;-47
2023/09/09 02:15:49;;;;;;;11.88;10.88;;;17.60;99.90;;;;;;5045393;28;20058;-46
2023/09/09 02:18:14;;;;;;;13.32;12.13;;;17.60;99.90;;;;;;5044951;28;20045;-48
2023/09/09 02:20:40;;;;;;;13.30;11.98;;;17.60;99.90;;;;;;5026832;28;20170;-49
2023/09/09 02:23:05;;;;;;;16.00;14.70;;;17.60;99.90;;;;;;5044719;28;20048;-47
2023/09/09 02:25:31;;;;;;;16.92;15.23;;;17.60;99.90;;;;;;5045201;28;20036;-46
2023/09/09 02:27:57;;;;;;;19.08;17.17;;;17.60;99.90;;;;;;5044998;28;20098;-48
2023/09/09 02:30:22;;;;;;;17.25;15.52;;;17.60;99.90;;;;;;5026945;28;20045;-48
2023/09/09 02:32:49;;;;;;;13.13;12.02;;;17.60;99.90;;;;;;5043985;28;20079;-47
2023/09/09 02:35:14;;;;;;;13.88;12.77;;;17.60;99.90;;;;;;5026658;28;20723;-46
2023/09/09 02:37:40;;;;;;;15.15;13.85;;;17.50;99.90;;;;;;5026653;28;20040;-49
2023/09/09 02:40:06;;;;;;;12.18;11.20;;;17.50;99.90;;;;;;5044842;28;20049;-45
2023/09/09 02:42:32;;;;;;;11.45;10.45;;;17.50;99.90;;;;;;5044156;28;20036;-47
2023/09/09 02:44:57;;;;;;;11.50;10.52;;;17.50;99.90;;;;;;5044653;28;20045;-47
2023/09/09 02:47:23;;;;;;;13.27;12.18;;;17.50;99.90;;;;;;5037233;28;20818;-48
2023/09/09 02:49:51;;;;;;;13.25;12.15;;;17.50;99.90;;;;;;5044463;28;20420;-48
2023/09/09 02:52:17;;;;;;;15.60;14.02;;;17.50;99.90;;;;;;5026056;28;20048;-47
2023/09/09 02:54:43;;;;;;;15.98;14.23;;;17.40;99.90;;;;;;5025854;28;20672;-50
2023/09/09 02:57:08;;;;;;;21.58;19.55;;;17.40;99.90;;;;;;5044283;28;20147;-50
2023/09/09 02:59:37;;;;;;;20.70;18.80;;;17.40;99.90;;;;;;5044289;28;20059;-49
2023/09/09 03:02:02;;;;;;;21.08;19.15;;;17.40;99.90;;;;;;5026056;28;20116;-49
2023/09/09 03:04:28;;;;;;;18.00;16.40;;;17.40;99.90;;;;;;5043822;28;20090;-47
2023/09/09 03:06:54;;;;;;;23.05;20.92;;;17.40;99.90;;;;;;5026273;28;20044;-46
2023/09/09 03:09:20;;;;;;;21.77;19.98;;;17.40;99.90;;;;;;5043712;28;20048;-47
2023/09/09 03:11:46;;;;;;;23.02;20.98;;;17.40;99.90;;;;;;5025558;28;20049;-50
2023/09/09 03:14:12;;;;;;;25.15;22.95;;;17.40;99.90;;;;;;5043328;28;20467;-48
2023/09/09 03:16:38;;;;;;;25.88;23.58;;;17.40;99.90;;;;;;5043823;28;20175;-48
2023/09/09 03:19:04;;;;;;;25.98;23.67;;;17.40;99.90;;;;;;5043987;28;20476;-48
2023/09/09 03:21:30;;;;;;;26.55;24.10;;;17.40;99.90;;;;;;5043253;28;20037;-46
2023/09/09 03:23:55;;;;;;;27.98;25.38;;;17.40;99.90;;;;;;5043544;28;20348;-48
2023/09/09 03:26:22;;;;;;;27.13;24.38;;;17.40;99.90;;;;;;5043451;28;20047;-49
2023/09/09 03:28:49;;;;;;;26.58;24.27;;;17.40;99.90;;;;;;5043775;28;20040;-48
2023/09/09 03:31:14;;;;;;;29.35;26.75;;;17.40;99.90;;;;;;5025123;28;20049;-49
2023/09/09 03:33:40;;;;;;;25.35;23.10;;;17.40;99.90;;;;;;5043071;28;20044;-48
2023/09/09 03:36:07;;;;;;;29.08;26.42;;;17.40;99.90;;;;;;5043649;28;20415;-48
2023/09/09 03:38:33;;;;;;;22.55;20.70;;;17.40;99.90;;;;;;5043769;28;20081;-50
2023/09/09 03:40:59;;;;;;;21.65;19.77;;;17.50;99.90;;;;;;5025034;28;20123;-50
2023/09/09 03:43:24;;;;;;;21.35;19.48;;;17.40;99.90;;;;;;5043236;28;20508;-49
2023/09/09 03:45:54;;;;;;;16.27;14.50;;;17.30;99.90;;;;;;5025553;28;20044;-49
2023/09/09 03:48:20;;;;;;;18.30;16.50;;;17.30;99.90;;;;;;5036490;28;20044;-49
2023/09/09 03:50:45;;;;;;;15.85;14.27;;;17.20;99.90;;;;;;5042717;28;20037;-47
2023/09/09 03:53:11;;;;;;;16.42;14.88;;;17.10;99.90;;;;;;5043225;28;20040;-48
2023/09/09 03:55:37;;;;;;;12.93;11.63;;;17.00;99.90;;;;;;5043145;28;20095;-47
2023/09/09 03:58:02;;;;;;;14.48;13.10;;;16.90;99.90;;;;;;5044000;28;20041;-50
2023/09/09 04:00:28;;;;;;;17.25;15.85;;;16.90;99.90;;;;;;5042552;28;20052;-49
2023/09/09 04:02:53;;;;;;;19.50;17.60;;;16.90;99.90;;;;;;5043317;28;20055;-49
2023/09/09 04:05:19;;;;;;;16.40;14.85;;;16.90;99.90;;;;;;5024880;28;20036;-49
2023/09/09 04:07:45;;;;;;;15.02;13.75;;;16.80;99.90;;;;;;5043312;28;20555;-49
2023/09/09 04:10:11;;;;;;;15.57;14.18;;;16.80;99.90;;;;;;5042582;28;20508;-47
2023/09/09 04:12:37;;;;;;;14.50;13.15;;;16.80;99.90;;;;;;5025011;28;20114;-49
2023/09/09 04:15:04;;;;;;;13.77;12.57;;;16.70;99.90;;;;;;5043144;28;20041;-50
2023/09/09 04:17:30;;;;;;;8.82;8.13;;;16.70;99.90;;;;;;5042906;28;20397;-50
2023/09/09 04:19:56;;;;;;;11.23;9.68;;;16.70;99.90;;;;;;5042617;28;20055;-49
2023/09/09 04:22:22;;;;;;;11.25;10.15;;;16.60;99.90;;;;;;5042503;28;20059;-47
2023/09/09 04:24:48;;;;;;;9.98;9.05;;;16.50;99.90;;;;;;5024640;28;20056;-50
2023/09/09 04:27:13;;;;;;;12.10;11.10;;;16.50;99.90;;;;;;5024480;28;20416;-49
2023/09/09 04:29:39;;;;;;;12.38;11.18;;;16.50;99.90;;;;;;5042769;28;20110;-48
2023/09/09 04:32:05;;;;;;;11.48;10.48;;;16.40;99.90;;;;;;5043012;28;20056;-50
2023/09/09 04:34:30;;;;;;;11.77;10.70;;;16.40;99.90;;;;;;5046449;28;20041;-50
2023/09/09 04:36:56;;;;;;;9.93;9.13;;;16.40;99.90;;;;;;5047515;28;20045;-47
2023/09/09 04:39:21;;;;;;;12.10;11.00;;;16.30;99.90;;;;;;5046486;28;20040;-50
2023/09/09 04:41:47;;;;;;;29.83;10.63;;;16.30;99.90;;;;;;5028850;28;20087;-47
2023/09/09 04:44:12;;;;;;;8.82;8.10;;;16.30;99.90;;;;;;5011594;28;20064;-47
2023/09/09 04:46:38;;;;;;;8.43;7.78;;;16.30;99.90;;;;;;5040799;28;20037;-50
2023/09/09 04:49:04;;;;;;;6.15;5.75;;;16.20;99.90;;;;;;5045218;28;20471;-48
2023/09/09 04:51:30;;;;;;;7.53;6.97;;;16.20;99.90;;;;;;5046211;28;20033;-48
2023/09/09 04:53:58;;;;;;;8.80;8.10;;;16.10;99.90;;;;;;5028092;28;20074;-49
2023/09/09 04:56:24;;;;;;;9.30;8.48;;;16.10;99.90;;;;;;5047267;28;20048;-48
2023/09/09 04:58:50;;;;;;;9.85;9.05;;;16.10;99.90;;;;;;5046752;28;20051;-50
2023/09/09 05:01:15;;;;;;;9.82;9.10;;;16.10;99.90;;;;;;5028265;28;20098;-49
2023/09/09 05:03:41;;;;;;;10.40;9.60;;;16.20;99.90;;;;;;5028051;28;20045;-50
2023/09/09 05:06:07;;;;;;;9.40;8.70;;;16.10;99.90;;;;;;5028433;28;20041;-50
2023/09/09 05:08:32;;;;;;;10.57;9.57;;;16.20;99.90;;;;;;5045999;28;20041;-49
2023/09/09 05:10:58;;;;;;;9.73;8.93;;;16.20;99.90;;;;;;5052913;28;20167;-50
2023/09/09 05:13:24;;;;;;;11.07;10.07;;;16.20;99.90;;;;;;5029709;28;20523;-51
2023/09/09 05:15:51;;;;;;;11.60;10.63;;;16.20;99.90;;;;;;5011638;28;20224;-49
2023/09/09 05:18:16;;;;;;;10.93;10.02;;;16.20;99.90;;;;;;5028266;28;20084;-50
2023/09/09 05:20:43;;;;;;;11.02;10.13;;;16.20;99.90;;;;;;5027484;28;20120;-50
2023/09/09 05:23:08;;;;;;;13.00;11.90;;;16.30;99.90;;;;;;5027734;28;20057;-49
2023/09/09 05:25:34;;;;;;;9.32;8.48;;;16.30;99.90;;;;;;5046234;28;20123;-48
2023/09/09 05:28:00;;;;;;;9.70;8.90;;;16.30;99.90;;;;;;5046285;28;20048;-49
2023/09/09 05:30:25;;;;;;;9.43;8.70;;;16.30;99.90;;;;;;5045815;28;20107;-50
2023/09/09 05:32:51;;;;;;;10.25;9.25;;;16.40;99.90;;;;;;5045967;28;20119;-49
2023/09/09 05:35:16;;;;;;;10.77;9.82;;;16.50;99.90;;;;;;5045879;28;20041;-51
2023/09/09 05:37:42;;;;;;;12.00;11.00;;;16.50;99.90;;;;;;5045641;28;20041;-48
2023/09/09 05:40:09;;;;;;;11.52;10.50;;;16.60;99.90;;;;;;5045658;28;20118;-49
2023/09/09 05:42:34;;;;;;;10.35;9.43;;;16.70;99.90;;;;;;5027466;28;20091;-49
2023/09/09 05:45:01;;;;;;;13.02;10.48;;;16.80;99.90;;;;;;5044791;28;20466;-50
2023/09/09 05:47:27;;;;;;;12.38;11.23;;;16.90;99.90;;;;;;5020905;28;20106;-50
2023/09/09 05:49:53;;;;;;;17.63;15.82;;;17.10;99.90;;;;;;5045691;28;20037;-49
2023/09/09 05:52:19;;;;;;;17.65;16.08;;;17.40;99.90;;;;;;5026521;28;20523;-50
2023/09/09 05:54:44;;;;;;;18.08;16.38;;;17.70;99.90;;;;;;5045754;28;20061;-48
2023/09/09 05:57:10;;;;;;;14.82;13.63;;;18.00;99.90;;;;;;5045540;28;20041;-50
2023/09/09 05:59:37;;;;;;;14.93;13.73;;;18.40;99.90;;;;;;5045682;28;20122;-46
2023/09/09 06:02:03;;;;;;;12.95;11.95;;;18.70;99.90;;;;;;5045058;28;20067;-46
2023/09/09 06:04:29;;;;;;;12.88;11.88;;;19.10;99.90;;;;;;5045021;28;20412;-47
2023/09/09 06:06:54;;;;;;;12.70;11.60;;;19.70;99.90;;;;;;5045183;28;20048;-47
2023/09/09 06:09:20;;;;;;;11.73;10.77;;;20.30;99.90;;;;;;5045383;28;20120;-48
2023/09/09 06:11:45;;;;;;;12.13;11.18;;;20.80;99.90;;;;;;5028194;28;20041;-46
2023/09/09 06:14:11;;;;;;;13.10;12.10;;;21.20;99.90;;;;;;5043786;28;20405;-47
2023/09/09 06:16:36;;;;;;;15.18;13.85;;;21.50;99.90;;;;;;5026951;28;20045;-46
2023/09/09 06:19:02;;;;;;;12.98;12.02;;;21.80;99.90;;;;;;5045749;28;20095;-48
2023/09/09 06:21:28;;;;;;;14.57;13.38;;;22.10;99.90;;;;;;5044195;28;20044;-49
2023/09/09 06:23:54;;;;;;;15.45;14.18;;;22.30;99.90;;;;;;5045041;28;20045;-48
2023/09/09 06:26:20;;;;;;;18.92;17.38;;;22.50;99.90;;;;;;5026633;28;20049;-47
2023/09/09 06:28:45;;;;;;;18.15;16.77;;;22.70;99.90;;;;;;5044912;28;20470;-47
2023/09/09 06:31:11;;;;;;;19.63;18.02;;;22.80;99.90;;;;;;5026535;28;20041;-47
2023/09/09 06:33:36;;;;;;;21.33;19.35;;;23.00;99.90;;;;;;5025914;28;20045;-47
2023/09/09 06:36:02;;;;;;;24.05;22.25;;;23.30;99.90;;;;;;5032142;28;20060;-49
2023/09/09 06:38:28;;;;;;;22.23;20.52;;;23.50;99.90;;;;;;5055032;28;20576;-47
2023/09/09 06:40:53;;;;;;;24.70;22.70;;;23.70;99.90;;;;;;5037059;28;20036;-47
2023/09/09 06:43:20;;;;;;;25.83;23.88;;;24.10;99.90;;;;;;5019575;28;20044;-49
2023/09/09 06:45:49;;;;;;;26.30;24.15;;;24.20;99.90;;;;;;5036859;28;20845;-47
2023/09/09 06:48:17;;;;;;;25.15;23.05;;;24.40;99.90;;;;;;5050544;28;20043;-48
2023/09/09 06:50:46;;;;;;;25.08;23.02;;;24.60;99.90;;;;;;5056019;28;20087;-48
2023/09/09 06:53:13;;;;;;;26.05;23.88;;;24.90;99.90;;;;;;5044466;28;20433;-47
2023/09/09 06:55:41;;;;;;;26.58;24.40;;;25.10;99.90;;;;;;5044513;28;20356;-48
2023/09/09 06:58:07;;;;;;;26.50;24.42;;;25.10;99.90;;;;;;5026727;28;20492;-48
2023/09/09 07:00:33;;;;;;;28.23;25.83;;;25.20;99.90;;;;;;5044211;28;20037;-47
2023/09/09 07:02:58;;;;;;;28.98;26.67;;;25.20;99.90;;;;;;5044201;28;20082;-47
2023/09/09 07:05:24;;;;;;;52.80;31.65;;;25.10;99.90;;;;;;5045069;28;20079;-46
2023/09/09 07:07:50;;;;;;;33.17;30.45;;;24.80;99.90;;;;;;5044574;28;20304;-46
2023/09/09 07:10:15;;;;;;;35.65;32.50;;;24.60;99.90;;;;;;5044253;28;20574;-47
2023/09/09 07:12:42;;;;;;;35.00;32.17;;;24.30;99.90;;;;;;5043699;28;20040;-47
2023/09/09 07:15:08;;;;;;;34.35;31.65;;;24.20;99.90;;;;;;5043093;28;20487;-47
2023/09/09 07:17:34;;;;;;;36.05;33.03;;;24.10;99.90;;;;;;5044401;28;20068;-48
2023/09/09 07:20:00;;;;;;;36.85;33.70;;;24.10;99.90;;;;;;5044174;28;20477;-47
2023/09/09 07:22:26;;;;;;;41.28;37.97;;;24.00;99.90;;;;;;5025924;28;20791;-47
2023/09/09 07:24:51;;;;;;;43.47;39.80;;;24.10;99.90;;;;;;5044175;28;20128;-47
2023/09/09 07:27:17;;;;;;;41.90;38.42;;;24.00;99.90;;;;;;5044426;28;20516;-48
2023/09/09 07:29:43;;;;;;;45.40;41.58;;;24.20;99.90;;;;;;5026429;28;20045;-47
2023/09/09 07:32:08;;;;;;;45.25;41.45;;;24.20;99.90;;;;;;5026395;28;20055;-46
2023/09/09 07:34:34;;;;;;;45.75;41.72;;;24.20;99.90;;;;;;5026269;28;20412;-46
2023/09/09 07:37:00;;;;;;;42.33;38.90;;;24.40;99.90;;;;;;5025665;28;20574;-47
2023/09/09 07:39:27;;;;;;;46.05;42.05;;;24.50;99.90;;;;;;5026017;28;20048;-47
2023/09/09 07:41:53;;;;;;;51.95;47.40;;;24.60;99.90;;;;;;5025418;28;20480;-46
2023/09/09 07:44:19;;;;;;;53.53;48.50;;;24.80;99.90;;;;;;5043167;28;20051;-46
2023/09/09 07:46:44;;;;;;;54.72;50.13;;;24.80;99.90;;;;;;5043781;28;20112;-47
2023/09/09 07:49:10;;;;;;;55.53;50.28;;;25.00;99.90;;;;;;5009163;28;20437;-49
2023/09/09 07:51:35;;;;;;;55.53;50.72;;;25.10;99.90;;;;;;5043439;28;20037;-49
2023/09/09 07:54:01;;;;;;;54.63;49.97;;;25.20;99.90;;;;;;5025470;28;20051;-48
2023/09/09 07:56:27;;;;;;;51.13;46.70;;;25.30;99.90;;;;;;5024976;28;20048;-47
2023/09/09 07:58:52;;;;;;;53.70;49.03;;;25.50;99.90;;;;;;5043023;28;20171;-47
2023/09/09 08:01:18;;;;;;;52.08;47.47;;;25.60;99.90;;;;;;5043724;28;20383;-47
2023/09/09 08:03:44;;;;;;;54.08;49.15;;;25.60;99.90;;;;;;5024993;28;20154;-46
2023/09/09 08:06:09;;;;;;;52.28;47.88;;;25.60;99.90;;;;;;5043464;28;20045;-47
2023/09/09 08:08:35;;;;;;;52.17;47.92;;;25.60;99.90;;;;;;5043050;28;20128;-48
2023/09/09 08:11:05;;;;;;;49.42;45.20;;;25.60;99.90;;;;;;5050846;28;20041;-50
2023/09/09 08:13:31;;;;;;;50.95;46.25;;;25.70;99.90;;;;;;5044108;28;20105;-48
2023/09/09 08:15:58;;;;;;;47.25;43.15;;;25.60;99.90;;;;;;5025491;28;20043;-49
2023/09/09 08:18:23;;;;;;;49.97;45.67;;;25.80;99.90;;;;;;5043668;28;20281;-47
2023/09/09 08:20:53;;;;;;;46.15;42.22;;;25.80;99.90;;;;;;5024302;28;20462;-48
2023/09/09 08:23:18;;;;;;;48.17;44.08;;;26.00;99.90;;;;;;5042391;28;20041;-47
2023/09/09 08:25:44;;;;;;;45.00;41.13;;;26.10;99.90;;;;;;5025005;28;20033;-51
2023/09/09 08:28:10;;;;;;;46.70;42.72;;;26.20;99.90;;;;;;5040627;28;20036;-49
2023/09/09 08:30:36;;;;;;;47.72;43.63;;;26.20;99.90;;;;;;5009515;28;20492;-47
2023/09/09 08:33:01;;;;;;;48.72;44.65;;;26.30;99.90;;;;;;5025409;28;20033;-49
2023/09/09 08:35:30;;;;;;;49.13;44.92;;;26.20;99.90;;;;;;5043805;28;20052;-49
2023/09/09 08:37:55;;;;;;;49.75;45.25;;;26.20;99.90;;;;;;4997193;28;20071;-48
2023/09/09 08:40:21;;;;;;;48.10;44.10;;;26.20;99.90;;;;;;5043476;28;20044;-47
2023/09/09 08:43:05;;;;;;;47.30;43.13;;;26.20;99.90;;;;;;5051437;28;20045;-48
2023/09/09 08:45:34;;;;;;;48.38;44.08;;;26.30;99.90;;;;;;5025616;28;20625;-47
2023/09/09 08:48:06;;;;;;;47.70;43.53;;;26.20;99.90;;;;;;5036173;28;20647;-48
2023/09/09 08:50:35;;;;;;;50.92;46.60;;;26.40;99.90;;;;;;5042774;28;20475;-48
2023/09/09 08:53:04;;;;;;;51.40;46.90;;;26.40;99.90;;;;;;5042763;28;20503;-47
2023/09/09 08:55:30;;;;;;;50.03;45.63;;;26.50;99.90;;;;;;5008146;28;20101;-47
2023/09/09 08:57:55;;;;;;;49.20;44.92;;;26.60;99.90;;;;;;5043620;28;20041;-47
2023/09/09 09:00:22;;;;;;;47.92;43.92;;;26.60;99.90;;;;;;5043106;28;20453;-47
2023/09/09 09:02:48;;;;;;;52.28;47.78;;;26.60;99.90;;;;;;5025153;28;20044;-47
2023/09/09 09:05:16;;;;;;;42.38;38.70;;;26.50;99.90;;;;;;5024825;28;20408;-50
2023/09/09 09:07:42;;;;;;;43.85;40.20;;;26.70;99.90;;;;;;5043022;28;20056;-50
2023/09/09 09:10:08;;;;;;;42.90;39.17;;;26.80;99.90;;;;;;5023768;28;20057;-48
2023/09/09 09:12:37;;;;;;;42.03;38.22;;;26.80;99.90;;;;;;5051604;28;20052;-48
2023/09/09 09:15:03;;;;;;;41.67;37.85;;;26.80;99.90;;;;;;5024909;28;20048;-48
2023/09/09 09:17:30;;;;;;;38.00;34.83;;;26.80;99.90;;;;;;5025142;28;20123;-47
2023/09/09 09:19:56;;;;;;;35.40;32.35;;;26.90;99.90;;;;;;5027634;28;20496;-47
2023/09/09 09:22:22;;;;;;;37.22;34.03;;;27.00;99.90;;;;;;5028345;28;20040;-46
2023/09/09 09:24:48;;;;;;;37.20;34.00;;;27.00;99.90;;;;;;5028071;28;20152;-47
2023/09/09 09:27:15;;;;;;;35.25;32.25;;;27.10;99.90;;;;;;5046760;28;20072;-50
2023/09/09 09:29:42;;;;;;;31.38;28.70;;;27.10;99.90;;;;;;5045944;28;20044;-48
2023/09/09 09:32:11;;;;;;;28.05;25.55;;;27.10;99.90;;;;;;5046155;28;20041;-47
2023/09/09 09:34:38;;;;;;;29.50;26.85;;;27.10;99.90;;;;;;5052300;28;20036;-49
2023/09/09 09:37:16;;;;;;;32.50;29.63;;;27.20;99.90;;;;;;5049205;28;20496;-47
2023/09/09 09:39:44;;;;;;;27.35;25.05;;;27.20;99.90;;;;;;5023259;28;20053;-48
2023/09/09 09:42:13;;;;;;;25.13;22.95;;;27.20;99.90;;;;;;5046178;28;20041;-46
2023/09/09 09:44:39;;;;;;;24.75;22.55;;;27.40;99.90;;;;;;5046462;28;20060;-48
2023/09/09 09:47:07;;;;;;;24.83;22.67;;;27.40;99.90;;;;;;5003651;28;20493;-46
2023/09/09 09:49:34;;;;;;;26.65;24.23;;;27.40;99.90;;;;;;5046463;28;20102;-49
2023/09/09 09:52:00;;;;;;;25.50;23.27;;;27.50;99.90;;;;;;5049095;28;20381;-51
2023/09/09 09:54:26;;;;;;;29.23;26.58;;;27.50;99.90;;;;;;5054918;28;20195;-47
2023/09/09 09:56:54;;;;;;;31.13;28.52;;;27.60;99.90;;;;;;5054221;28;20511;-46
2023/09/09 09:59:21;;;;;;;28.85;26.05;;;27.50;99.90;;;;;;5034571;28;20140;-46
2023/09/09 10:01:48;;;;;;;30.77;28.10;;;27.60;99.90;;;;;;5055280;28;20365;-47
2023/09/09 10:04:16;;;;;;;26.90;24.70;;;27.60;99.90;;;;;;5054346;28;20435;-47
2023/09/09 10:06:45;;;;;;;28.85;26.23;;;27.60;99.90;;;;;;5037456;28;20341;-47
2023/09/09 10:09:23;;;;;;;30.75;27.65;;;27.70;99.90;;;;;;5052003;28;20412;-49
2023/09/09 10:12:03;;;;;;;27.67;25.13;;;27.70;99.90;;;;;;5055116;28;20248;-47
2023/09/09 10:14:30;;;;;;;29.88;27.08;;;27.90;99.90;;;;;;5054115;28;20059;-49
2023/09/09 10:16:57;;;;;;;30.35;27.55;;;27.90;99.90;;;;;;5045833;28;20045;-46
2023/09/09 10:19:24;;;;;;;29.98;27.35;;;27.80;99.90;;;;;;5045862;28;20064;-47
2023/09/09 10:21:51;;;;;;;25.75;23.52;;;27.70;99.90;;;;;;5045212;28;20115;-46
2023/09/09 10:24:17;;;;;;;25.00;22.75;;;27.80;99.90;;;;;;5027824;28;20041;-48
2023/09/09 10:26:44;;;;;;;24.13;21.88;;;27.80;99.90;;;;;;5045841;28;20040;-49
2023/09/09 10:29:10;;;;;;;28.20;25.60;;;27.90;99.90;;;;;;5027601;28;20045;-46
2023/09/09 10:31:36;;;;;;;25.38;23.27;;;27.80;99.90;;;;;;5044520;28;20370;-48
2023/09/09 10:34:02;;;;;;;28.38;25.88;;;27.90;99.90;;;;;;5026577;28;20492;-46
2023/09/09 10:36:35;;;;;;;30.20;27.20;;;27.90;99.90;;;;;;5045855;28;20040;-48
2023/09/09 10:39:02;;;;;;;27.90;25.40;;;28.10;99.90;;;;;;5044862;28;20488;-48
2023/09/09 10:41:28;;;;;;;26.10;23.73;;;28.10;99.90;;;;;;5026135;28;20065;-50
2023/09/09 10:43:54;;;;;;;24.70;22.42;;;28.20;99.90;;;;;;5009708;28;20060;-47
2023/09/09 10:46:34;;;;;;;24.45;22.25;;;28.20;99.90;;;;;;5023631;28;20038;-49
2023/09/09 10:49:04;;;;;;;27.02;24.52;;;28.20;99.90;;;;;;5043013;28;20045;-46
2023/09/09 10:51:43;;;;;;;28.60;25.90;;;28.20;99.90;;;;;;5027046;28;20770;-48
2023/09/09 10:54:08;;;;;;;23.48;21.48;;;28.20;99.90;;;;;;5045334;28;20442;-50
2023/09/09 10:56:43;;;;;;;25.88;23.55;;;28.20;99.90;;;;;;5044741;28;20052;-48
2023/09/09 10:59:27;;;;;;;24.77;22.33;;;28.30;99.90;;;;;;5044760;28;20256;-49
2023/09/09 11:02:21;;;;;;;26.08;23.20;;;28.30;99.90;;;;;;5025795;28;20040;-45
2023/09/09 11:05:11;;;;;;;22.65;20.63;;;28.30;99.90;;;;;;5031466;28;20095;-49
2023/09/09 11:07:44;;;;;;;23.38;21.33;;;28.30;99.90;;;;;;5045073;28;20049;-47
2023/09/09 11:10:16;;;;;;;25.98;23.63;;;28.20;99.70;;;;;;5017280;28;20488;-45
2023/09/09 11:12:56;;;;;;;24.05;21.95;;;28.20;99.90;;;;;;5050090;28;20119;-47
2023/09/09 11:15:24;;;;;;;20.10;17.60;;;28.30;99.90;;;;;;5034846;28;20400;-45
2023/09/09 11:17:51;;;;;;;19.98;18.23;;;28.20;99.90;;;;;;5019199;28;20071;-48
2023/09/09 11:20:20;;;;;;;18.75;17.08;;;28.20;99.90;;;;;;5031399;28;20534;-48
2023/09/09 11:22:46;;;;;;;21.58;19.25;;;28.10;99.90;;;;;;5048878;28;20497;-48
2023/09/09 11:25:15;;;;;;;20.17;18.33;;;28.10;99.90;;;;;;5025992;28;20427;-47
2023/09/09 11:27:41;;;;;;;19.55;17.95;;;28.10;99.90;;;;;;5044132;28;20099;-47
2023/09/09 11:30:07;;;;;;;21.23;19.35;;;28.10;99.90;;;;;;5044039;28;20040;-49
2023/09/09 11:32:33;;;;;;;20.45;18.58;;;28.20;99.90;;;;;;5043858;28;20041;-47
2023/09/09 11:34:58;;;;;;;21.38;19.33;;;28.10;99.90;;;;;;5044123;28;20423;-49
2023/09/09 11:37:25;;;;;;;21.77;19.73;;;28.10;99.90;;;;;;5044243;28;20126;-45
2023/09/09 11:39:54;;;;;;;21.23;19.27;;;28.10;99.90;;;;;;5009414;28;20140;-44
2023/09/09 11:42:21;;;;;;;20.88;18.73;;;28.10;99.90;;;;;;5025791;28;20508;-45
2023/09/09 11:44:46;;;;;;;23.48;21.05;;;28.10;99.90;;;;;;5009380;28;20339;-47
2023/09/09 11:47:14;;;;;;;24.58;22.30;;;28.10;99.90;;;;;;5036251;28;20036;-46
2023/09/09 11:49:42;;;;;;;24.33;22.17;;;28.10;99.90;;;;;;5043391;28;20045;-48
2023/09/09 11:52:08;;;;;;;23.10;20.98;;;28.10;99.90;;;;;;5024754;28;20033;-46
2023/09/09 11:54:34;;;;;;;26.85;24.45;;;28.10;99.90;;;;;;5043779;28;20063;-46
2023/09/09 11:57:04;;;;;;;22.50;20.40;;;28.10;99.90;;;;;;5043385;28;20036;-47
2023/09/09 11:59:29;;;;;;;23.85;21.58;;;28.10;99.90;;;;;;5025266;28;20063;-49
2023/09/09 12:01:55;;;;;;;21.52;19.63;;;28.10;99.90;;;;;;5043161;28;20044;-47
2023/09/09 12:04:21;;;;;;;23.80;20.42;;;28.10;99.90;;;;;;5024880;28;20670;-47
2023/09/09 12:06:51;;;;;;;22.58;20.38;;;28.10;99.90;;;;;;5042094;28;20040;-47
2023/09/09 12:09:17;;;;;;;23.40;21.10;;;28.10;99.90;;;;;;5042205;28;20053;-49
2023/09/09 12:11:43;;;;;;;21.92;19.70;;;28.10;99.90;;;;;;5023519;28;20376;-49
2023/09/09 12:14:14;;;;;;;21.02;19.00;;;28.20;99.90;;;;;;5029008;28;20500;-46
2023/09/09 12:16:45;;;;;;;22.05;19.75;;;28.20;99.90;;;;;;5041345;28;20051;-48
2023/09/09 12:19:14;;;;;;;19.08;17.38;;;28.30;99.90;;;;;;5042464;28;20500;-48
2023/09/09 12:21:45;;;;;;;18.58;16.45;;;28.30;99.90;;;;;;5023240;28;20045;-48
2023/09/09 12:24:11;;;;;;;16.17;14.77;;;28.30;99.90;;;;;;5023949;28;20052;-49
2023/09/09 12:26:36;;;;;;;15.60;14.02;;;28.30;99.90;;;;;;5025244;28;20037;-46
2023/09/09 12:29:10;;;;;;;17.85;16.25;;;28.30;99.90;;;;;;5024010;28;20078;-48